Time;durP1;ratioP1;P1;durP2;ratioP2;P2;SDS_P1;SDS_P2;PMS_P1;PMS_P2;Temp;Humidity;BMP_temperature;BMP_pressure;BME280_temperature;BME280_humidity;BME280_pressure;Samples;Min_cycle;Max_cycle;Signal;HPM_P1;HPM_P2
2022/05/21 00:01:33;;;;;;;;;;;;;;;;;;6241578;23;19899;-64
2022/05/21 00:03:59;;;;;;;;;;;;;;;;;;6241425;23;19906;-64
2022/05/21 00:06:25;;;;;;;;;;;;;;;;;;6241875;23;19970;-65
2022/05/21 00:08:51;;;;;;;;;;;;;;;;;;6213857;23;20314;-64
2022/05/21 00:11:17;;;;;;;;;;;;;;;;;;6215146;23;19915;-64
2022/05/21 00:13:44;;;;;;;;;;;;;;;;;;6241703;23;19907;-64
2022/05/21 00:16:10;;;;;;;;;;;;;;;;;;6241444;23;19907;-64
2022/05/21 00:18:36;;;;;;;;;;;;;;;;;;6240907;23;20248;-64
2022/05/21 00:21:03;;;;;;;;;;;;;;;;;;6241725;23;19904;-64
2022/05/21 00:23:29;;;;;;;;;;;;;;;;;;6214309;23;20241;-64
2022/05/21 00:25:54;;;;;;;;;;;;;;;;;;6241097;23;20317;-64
2022/05/21 00:28:20;;;;;;;;;;;;;;;;;;6212717;23;19907;-64
2022/05/21 00:30:46;;;;;;;;;;;;;;;;;;6213999;23;19980;-64
2022/05/21 00:33:12;;;;;;;;;;;;;;;;;;6241852;23;19899;-64
2022/05/21 00:35:38;;;;;;;;;;;;;;;;;;6214382;23;19908;-64
2022/05/21 00:38:04;;;;;;;;;;;;;;;;;;6241063;23;19900;-64
2022/05/21 00:40:30;;;;;;;;;;;;;;;;;;6240637;23;19974;-64
2022/05/21 00:42:56;;;;;;;;;;;;;;;;;;6241364;23;19906;-63
2022/05/21 00:45:22;;;;;;;;;;;;;;;;;;6213911;23;19899;-64
2022/05/21 00:47:48;;;;;;;;;;;;;;;;;;6215096;23;19904;-63
2022/05/21 00:50:14;;;;;;;;;;;;;;;;;;6239969;23;19997;-64
2022/05/21 00:52:40;;;;;;;;;;;;;;;;;;6241202;23;20373;-64
2022/05/21 00:55:06;;;;;;;;;;;;;;;;;;6243022;23;19906;-64
2022/05/21 00:57:32;;;;;;;;;;;;;;;;;;6243794;23;19900;-64
2022/05/21 00:59:57;;;;;;;;;;;;;;;;;;6214839;23;20380;-65
2022/05/21 01:02:23;;;;;;;;;;;;;;;;;;6215774;23;19953;-64
2022/05/21 01:04:49;;;;;;;;;;;;;;;;;;6243358;23;19900;-65
2022/05/21 01:07:15;;;;;;;;;;;;;;;;;;6243884;23;19899;-64
2022/05/21 01:09:41;;;;;;;;;;;;;;;;;;6242404;23;19900;-64
2022/05/21 01:12:07;;;;;;;;;;;;;;;;;;6243442;23;20322;-64
2022/05/21 01:14:33;;;;;;;;;;;;;;;;;;6216748;23;19930;-63
2022/05/21 01:16:59;;;;;;;;;;;;;;;;;;6215829;23;19899;-64
2022/05/21 01:19:25;;;;;;;;;;;;;;;;;;6242058;23;19953;-64
2022/05/21 01:21:51;;;;;;;;;;;;;;;;;;6243060;23;20318;-64
2022/05/21 01:24:16;;;;;;;;;;;;;;;;;;6243149;23;19903;-64
2022/05/21 01:26:42;;;;;;;;;;;;;;;;;;6216732;23;19900;-64
2022/05/21 01:29:11;;;;;;;;;;;;;;;;;;6241888;23;19953;-64
2022/05/21 01:31:37;;;;;;;;;;;;;;;;;;6241935;23;19934;-64
2022/05/21 01:34:03;;;;;;;;;;;;;;;;;;6242562;23;20353;-64
2022/05/21 01:36:29;;;;;;;;;;;;;;;;;;6242790;23;19906;-64
2022/05/21 01:38:55;;;;;;;;;;;;;;;;;;6214920;23;20341;-64
2022/05/21 01:41:21;;;;;;;;;;;;;;;;;;6242846;23;19900;-64
2022/05/21 01:46:31;;;;;;;;;;;;;;;;;;6242466;23;19906;-64
2022/05/21 01:48:57;;;;;;;;;;;;;;;;;;6242105;23;19904;-64
2022/05/21 01:51:23;;;;;;;;;;;;;;;;;;6243190;23;20250;-64
2022/05/21 01:53:49;;;;;;;;;;;;;;;;;;6242781;23;19911;-64
2022/05/21 01:56:15;;;;;;;;;;;;;;;;;;6242855;23;19900;-64
2022/05/21 01:58:41;;;;;;;;;;;;;;;;;;6215678;23;19907;-64
2022/05/21 02:01:06;;;;;;;;;;;;;;;;;;6241700;23;19911;-64
2022/05/21 02:03:32;;;;;;;;;;;;;;;;;;6216418;23;19906;-64
2022/05/21 02:05:58;;;;;;;;;;;;;;;;;;6215609;23;20422;-64
2022/05/21 02:08:24;;;;;;;;;;;;;;;;;;6242621;23;19900;-64
2022/05/21 02:10:51;;;;;;;;;;;;;;;;;;6214607;23;19907;-64
2022/05/21 02:13:17;;;;;;;;;;;;;;;;;;6236658;23;20816;-64
2022/05/21 02:15:43;;;;;;;;;;;;;;;;;;6242968;23;19899;-64
2022/05/21 02:18:09;;;;;;;;;;;;;;;;;;6214294;23;19900;-64
2022/05/21 02:20:34;;;;;;;;;;;;;;;;;;6242841;23;19899;-64
2022/05/21 02:23:00;;;;;;;;;;;;;;;;;;6215707;23;19900;-64
2022/05/21 02:25:26;;;;;;;;;;;;;;;;;;6216310;23;19899;-64
2022/05/21 02:27:52;;;;;;;;;;;;;;;;;;6242650;23;20202;-64
2022/05/21 02:30:18;;;;;;;;;;;;;;;;;;6215168;23;19915;-64
2022/05/21 02:32:44;;;;;;;;;;;;;;;;;;6241714;23;19927;-64
2022/05/21 02:35:10;;;;;;;;;;;;;;;;;;6242966;23;20199;-64
2022/05/21 02:40:21;;;;;;;;;;;;;;;;;;6242448;23;19974;-64
2022/05/21 02:42:47;;;;;;;;;;;;;;;;;;6242383;23;20055;-64
2022/05/21 02:45:13;;;;;;;;;;;;;;;;;;6241195;23;20331;-64
2022/05/21 02:47:39;;;;;;;;;;;;;;;;;;6214886;23;19900;-64
2022/05/21 02:50:05;;;;;;;;;;;;;;;;;;6214869;23;19907;-64
2022/05/21 02:52:31;;;;;;;;;;;;;;;;;;6242441;23;20367;-64
2022/05/21 02:54:57;;;;;;;;;;;;;;;;;;6215882;23;19904;-65
2022/05/21 02:57:23;;;;;;;;;;;;;;;;;;6242452;23;20225;-64
2022/05/21 02:59:50;;;;;;;;;;;;;;;;;;6241520;23;19899;-64
2022/05/21 03:02:16;;;;;;;;;;;;;;;;;;6242283;23;19942;-64
2022/05/21 03:04:42;;;;;;;;;;;;;;;;;;6215368;23;19899;-64
2022/05/21 03:07:08;;;;;;;;;;;;;;;;;;6215420;23;20405;-64
2022/05/21 03:12:18;;;;;;;;;;;;;;;;;;6241665;23;19962;-64
2022/05/21 03:14:44;;;;;;;;;;;;;;;;;;6240093;23;19903;-64
2022/05/21 03:17:11;;;;;;;;;;;;;;;;;;6241520;23;19930;-64
2022/05/21 03:19:37;;;;;;;;;;;;;;;;;;6240080;23;19910;-65
2022/05/21 03:22:03;;;;;;;;;;;;;;;;;;6242315;23;19899;-65
2022/05/21 03:24:29;;;;;;;;;;;;;;;;;;6242031;23;20054;-64
2022/05/21 03:26:55;;;;;;;;;;;;;;;;;;6214823;23;19903;-65
2022/05/21 03:29:21;;;;;;;;;;;;;;;;;;6240894;23;20313;-64
2022/05/21 03:31:47;;;;;;;;;;;;;;;;;;6241270;23;19911;-65
2022/05/21 03:34:13;;;;;;;;;;;;;;;;;;6241985;23;19907;-64
2022/05/21 03:36:39;;;;;;;;;;;;;;;;;;6242500;23;20493;-64
2022/05/21 03:39:05;;;;;;;;;;;;;;;;;;6241021;23;19899;-64
2022/05/21 03:41:31;;;;;;;;;;;;;;;;;;6241692;23;19903;-65
2022/05/21 03:43:57;;;;;;;;;;;;;;;;;;6240908;23;19982;-65
2022/05/21 03:46:23;;;;;;;;;;;;;;;;;;6242431;23;19911;-64
2022/05/21 03:48:49;;;;;;;;;;;;;;;;;;6240985;23;19899;-64
2022/05/21 03:51:15;;;;;;;;;;;;;;;;;;6241350;23;20422;-64
2022/05/21 03:53:41;;;;;;;;;;;;;;;;;;6241132;23;19995;-65
2022/05/21 03:56:07;;;;;;;;;;;;;;;;;;6214433;23;19910;-65
2022/05/21 03:58:33;;;;;;;;;;;;;;;;;;6241598;23;19903;-64
2022/05/21 04:00:58;;;;;;;;;;;;;;;;;;6242624;23;20368;-65
2022/05/21 04:03:24;;;;;;;;;;;;;;;;;;6241810;23;19900;-64
2022/05/21 04:05:50;;;;;;;;;;;;;;;;;;6244152;23;20381;-64
2022/05/21 04:08:16;;;;;;;;;;;;;;;;;;6244430;23;19946;-64
2022/05/21 04:10:42;;;;;;;;;;;;;;;;;;6245666;23;20219;-64
2022/05/21 04:13:08;;;;;;;;;;;;;;;;;;6244969;23;19900;-64
2022/05/21 04:15:34;;;;;;;;;;;;;;;;;;6244509;23;20261;-64
2022/05/21 04:18:00;;;;;;;;;;;;;;;;;;6242608;23;19983;-65
2022/05/21 04:20:25;;;;;;;;;;;;;;;;;;6241922;23;19899;-64
2022/05/21 04:22:51;;;;;;;;;;;;;;;;;;6241411;23;19927;-64
2022/05/21 04:25:17;;;;;;;;;;;;;;;;;;6241370;23;19912;-64
2022/05/21 04:27:43;;;;;;;;;;;;;;;;;;6241796;23;19966;-65
2022/05/21 04:30:09;;;;;;;;;;;;;;;;;;6214202;23;19911;-64
2022/05/21 04:32:35;;;;;;;;;;;;;;;;;;6243457;23;19913;-65
2022/05/21 04:35:01;;;;;;;;;;;;;;;;;;6243395;23;19962;-65
2022/05/21 04:37:27;;;;;;;;;;;;;;;;;;6243321;23;20344;-65
2022/05/21 04:39:53;;;;;;;;;;;;;;;;;;6241408;23;20541;-64
2022/05/21 04:42:19;;;;;;;;;;;;;;;;;;6242874;23;19906;-64
2022/05/21 04:44:45;;;;;;;;;;;;;;;;;;6242019;23;19899;-64
2022/05/21 04:47:10;;;;;;;;;;;;;;;;;;6243333;23;19900;-65
2022/05/21 04:49:36;;;;;;;;;;;;;;;;;;6242478;23;19904;-64
2022/05/21 04:52:02;;;;;;;;;;;;;;;;;;6243624;23;20024;-65
2022/05/21 04:54:28;;;;;;;;;;;;;;;;;;6243158;23;19906;-65
2022/05/21 04:56:54;;;;;;;;;;;;;;;;;;6244395;23;19900;-64
2022/05/21 04:59:20;;;;;;;;;;;;;;;;;;6242029;23;19931;-64
2022/05/21 05:01:46;;;;;;;;;;;;;;;;;;6243550;23;19907;-64
2022/05/21 05:04:12;;;;;;;;;;;;;;;;;;6240308;23;19946;-64
2022/05/21 05:06:38;;;;;;;;;;;;;;;;;;6216854;23;19911;-64
2022/05/21 05:09:04;;;;;;;;;;;;;;;;;;6241994;23;19899;-64
2022/05/21 05:11:30;;;;;;;;;;;;;;;;;;6243420;23;20340;-64
2022/05/21 05:13:56;;;;;;;;;;;;;;;;;;6243208;23;19900;-64
2022/05/21 05:16:21;;;;;;;;;;;;;;;;;;6242933;23;19899;-64
2022/05/21 05:18:47;;;;;;;;;;;;;;;;;;6242167;23;20310;-64
2022/05/21 05:21:13;;;;;;;;;;;;;;;;;;6243139;23;19942;-64
2022/05/21 05:23:39;;;;;;;;;;;;;;;;;;6243347;23;19899;-64
2022/05/21 05:26:05;;;;;;;;;;;;;;;;;;6242919;23;19986;-64
2022/05/21 05:28:31;;;;;;;;;;;;;;;;;;6242193;23;19899;-64
2022/05/21 05:30:57;;;;;;;;;;;;;;;;;;6242381;23;19911;-66
2022/05/21 05:33:24;;;;;;;;;;;;;;;;;;6242786;23;20277;-64
2022/05/21 05:35:52;;;;;;;;;;;;;;;;;;6243302;23;19927;-64
2022/05/21 05:38:18;;;;;;;;;;;;;;;;;;6240791;23;19907;-64
2022/05/21 05:40:45;;;;;;;;;;;;;;;;;;6242531;23;19903;-64
2022/05/21 05:43:10;;;;;;;;;;;;;;;;;;6242218;23;19900;-64
2022/05/21 05:45:36;;;;;;;;;;;;;;;;;;6242676;23;19945;-64
2022/05/21 05:48:02;;;;;;;;;;;;;;;;;;6241406;23;19907;-66
2022/05/21 05:50:28;;;;;;;;;;;;;;;;;;6242800;23;19907;-66
2022/05/21 05:52:54;;;;;;;;;;;;;;;;;;6240316;23;20537;-65
2022/05/21 05:55:20;;;;;;;;;;;;;;;;;;6240604;23;19900;-65
2022/05/21 05:57:46;;;;;;;;;;;;;;;;;;6241266;23;19903;-65
2022/05/21 06:00:12;;;;;;;;;;;;;;;;;;6239437;23;19926;-65
2022/05/21 06:05:22;;;;;;;;;;;;;;;;;;6240869;23;19934;-65
2022/05/21 06:07:48;;;;;;;;;;;;;;;;;;6214798;23;19899;-65
2022/05/21 06:10:14;;;;;;;;;;;;;;;;;;6239803;23;20029;-66
2022/05/21 06:12:40;;;;;;;;;;;;;;;;;;6241960;23;19899;-65
2022/05/21 06:15:06;;;;;;;;;;;;;;;;;;6240813;23;19900;-66
2022/05/21 06:17:32;;;;;;;;;;;;;;;;;;6240790;23;19907;-65
2022/05/21 06:19:58;;;;;;;;;;;;;;;;;;6239593;23;19906;-66
2022/05/21 06:22:24;;;;;;;;;;;;;;;;;;6241768;23;19953;-66
2022/05/21 06:24:51;;;;;;;;;;;;;;;;;;6241297;23;20233;-65
2022/05/21 06:27:17;;;;;;;;;;;;;;;;;;6241349;23;20415;-65
2022/05/21 06:29:42;;;;;;;;;;;;;;;;;;6240273;23;20318;-65
2022/05/21 06:32:08;;;;;;;;;;;;;;;;;;6240453;23;20006;-65
2022/05/21 06:34:34;;;;;;;;;;;;;;;;;;6240751;23;19906;-65
2022/05/21 06:37:00;;;;;;;;;;;;;;;;;;6241310;23;19899;-65
2022/05/21 06:39:26;;;;;;;;;;;;;;;;;;6240410;23;19906;-65
2022/05/21 06:41:52;;;;;;;;;;;;;;;;;;6241215;23;19953;-65
2022/05/21 06:44:18;;;;;;;;;;;;;;;;;;6240393;23;19911;-65
2022/05/21 06:46:44;;;;;;;;;;;;;;;;;;6212768;23;20238;-66
2022/05/21 06:49:10;;;;;;;;;;;;;;;;;;6239706;23;19900;-65
2022/05/21 06:51:35;;;;;;;;;;;;;;;;;;6240364;23;20310;-65
2022/05/21 06:54:01;;;;;;;;;;;;;;;;;;6194706;23;1116779;-64
2022/05/21 06:56:27;;;;;;;;;;;;;;;;;;6241344;23;19910;-66
2022/05/21 06:58:53;;;;;;;;;;;;;;;;;;6214788;23;19953;-66
2022/05/21 07:01:20;;;;;;;;;;;;;;;;;;6215300;23;19939;-66
2022/05/21 07:03:46;;;;;;;;;;;;;;;;;;6241628;23;19903;-66
2022/05/21 07:08:56;;;;;;;;;;;;;;;;;;6241600;23;19922;-66
2022/05/21 07:11:23;;;;;;;;;;;;;;;;;;6242005;23;20434;-66
2022/05/21 07:13:48;;;;;;;;;;;;;;;;;;6242082;23;19962;-66
2022/05/21 07:16:14;;;;;;;;;;;;;;;;;;6241898;23;19903;-66
2022/05/21 07:18:40;;;;;;;;;;;;;;;;;;6241367;23;19899;-66
2022/05/21 07:21:10;;;;;;;;;;;;;;;;;;6214778;23;19900;-66
2022/05/21 07:23:36;;;;;;;;;;;;;;;;;;6215491;23;19899;-66
2022/05/21 07:26:02;;;;;;;;;;;;;;;;;;6241653;23;20261;-67
2022/05/21 07:28:28;;;;;;;;;;;;;;;;;;6241458;23;19904;-65
2022/05/21 07:30:54;;;;;;;;;;;;;;;;;;6241790;23;19911;-66
2022/05/21 07:33:20;;;;;;;;;;;;;;;;;;6242559;23;19982;-66
2022/05/21 07:35:46;;;;;;;;;;;;;;;;;;6241329;23;19911;-66
2022/05/21 07:38:12;;;;;;;;;;;;;;;;;;6241288;23;19900;-66
2022/05/21 07:40:38;;;;;;;;;;;;;;;;;;6242264;23;20321;-66
2022/05/21 07:43:04;;;;;;;;;;;;;;;;;;6241910;23;19908;-65
2022/05/21 07:45:30;;;;;;;;;;;;;;;;;;6242376;23;19899;-66
2022/05/21 07:47:56;;;;;;;;;;;;;;;;;;6241366;23;19899;-66
2022/05/21 08:12:30;;;;;;;;;;;;;;;;;;6184183;23;19912;-69
2022/05/21 08:14:56;;;;;;;;;;;;;;;;;;6181716;23;20424;-68
2022/05/21 08:17:22;;;;;;;;;;;;;;;;;;6155492;23;19906;-69
2022/05/21 08:19:49;;;;;;;;;;;;;;;;;;6180424;23;19942;-68
2022/05/21 08:28:04;;;;;;;;;;;;;;;;;;6148808;23;19901;-68
2022/05/21 08:30:30;;;;;;;;;;;;;;;;;;6123530;23;19956;-68
2022/05/21 08:32:56;;;;;;;;;;;;;;;;;;6123293;23;19907;-68
2022/05/21 08:35:22;;;;;;;;;;;;;;;;;;6147627;23;19901;-69
2022/05/21 08:37:48;;;;;;;;;;;;;;;;;;6148764;23;19904;-68
2022/05/21 08:40:14;;;;;;;;;;;;;;;;;;6147396;23;19901;-68
2022/05/21 08:42:40;;;;;;;;;;;;;;;;;;6148316;23;20227;-68
2022/05/21 08:45:06;;;;;;;;;;;;;;;;;;6148397;23;19901;-68
2022/05/21 08:47:33;;;;;;;;;;;;;;;;;;6148084;23;19901;-68
2022/05/21 08:49:59;;;;;;;;;;;;;;;;;;6146720;23;19983;-68
2022/05/21 08:52:25;;;;;;;;;;;;;;;;;;6148880;23;20318;-68
2022/05/21 08:54:51;;;;;;;;;;;;;;;;;;6148684;23;19900;-68
2022/05/21 08:57:17;;;;;;;;;;;;;;;;;;6123797;23;19935;-68
2022/05/21 08:59:43;;;;;;;;;;;;;;;;;;6176278;23;20307;-68
2022/05/21 09:02:09;;;;;;;;;;;;;;;;;;6180986;23;19983;-68
2022/05/21 09:04:35;;;;;;;;;;;;;;;;;;6155109;23;20270;-68
2022/05/21 09:07:01;;;;;;;;;;;;;;;;;;6180126;23;19900;-69
2022/05/21 09:09:27;;;;;;;;;;;;;;;;;;6180608;23;19900;-67
2022/05/21 09:11:53;;;;;;;;;;;;;;;;;;6155024;23;19908;-67
2022/05/21 09:14:21;;;;;;;;;;;;;;;;;;6181235;23;20528;-68
2022/05/21 09:16:56;;;;;;;;;;;;;;;;;;6182854;23;19911;-68
2022/05/21 09:19:22;;;;;;;;;;;;;;;;;;6156435;23;19901;-67
2022/05/21 09:21:48;;;;;;;;;;;;;;;;;;6157535;23;20261;-68
2022/05/21 09:24:20;;;;;;;;;;;;;;;;;;6185362;23;20321;-68
2022/05/21 09:26:46;;;;;;;;;;;;;;;;;;6183645;23;19904;-67
2022/05/21 09:48:59;;;;;;;;;;;;;;;;;;6151405;23;20278;-67
2022/05/21 09:51:36;;;;;;;;;;;;;;;;;;6149954;23;19915;-68
2022/05/21 09:54:03;;;;;;;;;;;;;;;;;;6149358;23;19933;-69
2022/05/21 09:56:31;;;;;;;;;;;;;;;;;;6150101;23;19908;-68
2022/05/21 10:01:42;;;;;;;;;;;;;;;;;;6151767;23;19910;-68
2022/05/21 10:04:07;;;;;;;;;;;;;;;;;;6125173;23;19904;-68
2022/05/21 10:06:33;;;;;;;;;;;;;;;;;;6163948;23;19942;-68
2022/05/21 10:11:44;;;;;;;;;;;;;;;;;;6181117;23;19919;-68
2022/05/21 10:14:10;;;;;;;;;;;;;;;;;;6156686;23;19908;-68
2022/05/21 10:19:33;;;;;;;;;;;;;;;;;;6185766;23;19958;-68
2022/05/21 10:21:59;;;;;;;;;;;;;;;;;;6181335;23;19979;-69
2022/05/21 10:24:25;;;;;;;;;;;;;;;;;;6156156;23;19946;-68
2022/05/21 10:26:50;;;;;;;;;;;;;;;;;;6182114;23;19908;-68
2022/05/21 10:29:16;;;;;;;;;;;;;;;;;;6181739;23;19923;-68
2022/05/21 10:31:42;;;;;;;;;;;;;;;;;;6182038;23;19915;-68
2022/05/21 10:34:08;;;;;;;;;;;;;;;;;;6155837;23;19904;-68
2022/05/21 10:36:34;;;;;;;;;;;;;;;;;;6181843;23;19967;-67
2022/05/21 10:39:00;;;;;;;;;;;;;;;;;;6155534;23;19931;-68
2022/05/21 10:41:26;;;;;;;;;;;;;;;;;;6182520;23;19943;-67
2022/05/21 10:43:52;;;;;;;;;;;;;;;;;;6156022;23;19907;-67
2022/05/21 10:46:19;;;;;;;;;;;;;;;;;;6182176;23;19927;-67
2022/05/21 10:48:45;;;;;;;;;;;;;;;;;;6181716;23;20423;-67
2022/05/21 10:51:11;;;;;;;;;;;;;;;;;;6155122;23;19908;-68
2022/05/21 10:53:36;;;;;;;;;;;;;;;;;;6182035;23;19900;-68
2022/05/21 10:56:02;;;;;;;;;;;;;;;;;;6182295;23;19931;-68
2022/05/21 10:58:28;;;;;;;;;;;;;;;;;;6181452;23;19907;-68
2022/05/21 11:00:54;;;;;;;;;;;;;;;;;;6181865;23;19907;-68
2022/05/21 11:03:20;;;;;;;;;;;;;;;;;;6181883;23;20233;-68
2022/05/21 11:05:46;;;;;;;;;;;;;;;;;;6182264;23;19911;-67
2022/05/21 11:08:12;;;;;;;;;;;;;;;;;;6180052;23;19904;-68
2022/05/21 11:10:38;;;;;;;;;;;;;;;;;;6181748;23;19970;-67
2022/05/21 11:13:04;;;;;;;;;;;;;;;;;;6180991;23;19915;-68
2022/05/21 11:15:30;;;;;;;;;;;;;;;;;;6181472;23;19906;-68
2022/05/21 11:17:56;;;;;;;;;;;;;;;;;;6181638;23;19907;-68
2022/05/21 11:20:22;;;;;;;;;;;;;;;;;;6180422;23;19915;-67
2022/05/21 11:22:48;;;;;;;;;;;;;;;;;;6180295;23;19927;-68
2022/05/21 11:25:14;;;;;;;;;;;;;;;;;;6182052;23;19908;-67
2022/05/21 11:27:40;;;;;;;;;;;;;;;;;;6181956;23;19900;-68
2022/05/21 11:30:06;;;;;;;;;;;;;;;;;;6180044;23;19904;-68
2022/05/21 11:38:01;;;;;;;;;;;;;;;;;;6179952;23;19935;-67
2022/05/21 11:40:27;;;;;;;;;;;;;;;;;;6181353;23;20315;-68
2022/05/21 11:42:53;;;;;;;;;;;;;;;;;;6181960;23;19927;-67
2022/05/21 11:45:19;;;;;;;;;;;;;;;;;;6181294;23;19904;-67
2022/05/21 11:47:45;;;;;;;;;;;;;;;;;;6181831;23;20291;-67
2022/05/21 11:50:11;;;;;;;;;;;;;;;;;;6180555;23;19943;-67
2022/05/21 11:52:37;;;;;;;;;;;;;;;;;;6181089;23;19907;-66
2022/05/21 11:55:04;;;;;;;;;;;;;;;;;;6178984;23;20399;-67
2022/05/21 11:57:30;;;;;;;;;;;;;;;;;;6181561;23;19911;-67
2022/05/21 11:59:56;;;;;;;;;;;;;;;;;;6180199;23;19987;-67
2022/05/21 12:02:22;;;;;;;;;;;;;;;;;;6181268;23;20340;-66
2022/05/21 12:04:47;;;;;;;;;;;;;;;;;;6182095;23;20384;-66
2022/05/21 12:07:14;;;;;;;;;;;;;;;;;;6181092;23;19904;-68
2022/05/21 12:09:40;;;;;;;;;;;;;;;;;;6153884;23;19904;-66
2022/05/21 12:12:06;;;;;;;;;;;;;;;;;;6181343;23;19908;-67
2022/05/21 12:14:32;;;;;;;;;;;;;;;;;;6180255;23;19908;-67
2022/05/21 12:16:58;;;;;;;;;;;;;;;;;;6181111;23;19935;-67
2022/05/21 12:19:23;;;;;;;;;;;;;;;;;;6180900;23;19947;-66
2022/05/21 12:21:49;;;;;;;;;;;;;;;;;;6180817;23;19990;-67
2022/05/21 12:24:15;;;;;;;;;;;;;;;;;;6181531;23;19900;-66
2022/05/21 12:26:43;;;;;;;;;;;;;;;;;;6181695;23;19900;-67
2022/05/21 12:29:09;;;;;;;;;;;;;;;;;;6180991;23;20088;-67
2022/05/21 12:31:35;;;;;;;;;;;;;;;;;;6154319;23;19907;-67
2022/05/21 12:34:01;;;;;;;;;;;;;;;;;;6181591;23;19957;-67
2022/05/21 12:36:27;;;;;;;;;;;;;;;;;;6181618;23;19900;-66
2022/05/21 12:38:52;;;;;;;;;;;;;;;;;;6180257;23;19900;-66
2022/05/21 12:41:18;;;;;;;;;;;;;;;;;;6181279;23;20043;-66
2022/05/21 12:43:44;;;;;;;;;;;;;;;;;;6181420;23;19910;-66
2022/05/21 12:46:10;;;;;;;;;;;;;;;;;;6181745;23;20341;-66
2022/05/21 12:48:36;;;;;;;;;;;;;;;;;;6181006;23;20264;-67
2022/05/21 12:51:02;;;;;;;;;;;;;;;;;;6183162;23;19912;-66
2022/05/21 12:53:28;;;;;;;;;;;;;;;;;;6183067;23;19999;-66
2022/05/21 12:55:54;;;;;;;;;;;;;;;;;;6183555;23;19900;-66
2022/05/21 12:58:20;;;;;;;;;;;;;;;;;;6182672;23;19904;-66
2022/05/21 13:00:46;;;;;;;;;;;;;;;;;;6183552;23;19911;-65
2022/05/21 13:03:12;;;;;;;;;;;;;;;;;;6182203;23;19900;-66
2022/05/21 13:05:38;;;;;;;;;;;;;;;;;;6183535;23;19907;-66
2022/05/21 13:08:05;;;;;;;;;;;;;;;;;;6182646;23;19947;-65
2022/05/21 13:10:31;;;;;;;;;;;;;;;;;;6183179;23;20326;-67
2022/05/21 13:12:57;;;;;;;;;;;;;;;;;;6183210;23;19912;-66
2022/05/21 13:15:23;;;;;;;;;;;;;;;;;;6184243;23;19901;-67
2022/05/21 13:17:50;;;;;;;;;;;;;;;;;;6183944;23;19907;-65
2022/05/21 13:20:16;;;;;;;;;;;;;;;;;;6184817;23;19907;-66
2022/05/21 13:22:42;;;;;;;;;;;;;;;;;;6185878;23;19904;-66
2022/05/21 13:25:07;;;;;;;;;;;;;;;;;;6185927;23;19911;-66
2022/05/21 13:27:33;;;;;;;;;;;;;;;;;;6186057;23;19901;-65
2022/05/21 13:29:59;;;;;;;;;;;;;;;;;;6185284;23;19908;-65
2022/05/21 13:32:25;;;;;;;;;;;;;;;;;;6187192;23;19915;-66
2022/05/21 13:34:51;;;;;;;;;;;;;;;;;;6184829;23;20303;-66
2022/05/21 13:37:17;;;;;;;;;;;;;;;;;;6184782;23;19983;-65
2022/05/21 13:39:43;;;;;;;;;;;;;;;;;;6181305;23;19904;-66
2022/05/21 13:42:09;;;;;;;;;;;;;;;;;;6182797;23;20273;-65
2022/05/21 13:44:36;;;;;;;;;;;;;;;;;;6182949;23;20565;-66
2022/05/21 13:47:01;;;;;;;;;;;;;;;;;;6183509;23;19900;-66
2022/05/21 13:49:27;;;;;;;;;;;;;;;;;;6181903;23;20343;-66
2022/05/21 13:51:53;;;;;;;;;;;;;;;;;;6182344;23;19908;-66
2022/05/21 13:57:02;;;;;;;;;;;;;;;;;;6155031;23;20295;-64
2022/05/21 13:59:28;;;;;;;;;;;;;;;;;;6154886;23;19907;-63
2022/05/21 14:01:54;;;;;;;;;;;;;;;;;;6155567;23;20211;-64
2022/05/21 14:04:19;;;;;;;;;;;;;;;;;;6152706;23;20239;-63
2022/05/21 14:06:46;;;;;;;;;;;;;;;;;;6153138;23;19907;-63
2022/05/21 14:09:11;;;;;;;;;;;;;;;;;;6152297;23;19900;-64
2022/05/21 14:11:38;;;;;;;;;;;;;;;;;;6152192;23;20243;-64
2022/05/21 14:14:04;;;;;;;;;;;;;;;;;;6153294;23;19900;-64
2022/05/21 14:16:33;;;;;;;;;;;;;;;;;;6152914;23;19901;-63
2022/05/21 14:18:59;;;;;;;;;;;;;;;;;;6152389;23;19901;-63
2022/05/21 14:21:29;;;;;;;;;;;;;;;;;;6152337;23;20047;-63
2022/05/21 14:23:55;;;;;;;;;;;;;;;;;;6152104;23;19911;-64
2022/05/21 14:26:21;;;;;;;;;;;;;;;;;;6152300;23;19908;-64
2022/05/21 14:28:47;;;;;;;;;;;;;;;;;;6152827;23;20319;-63
2022/05/21 14:31:12;;;;;;;;;;;;;;;;;;6152296;23;19915;-63
2022/05/21 14:33:38;;;;;;;;;;;;;;;;;;6153210;23;19955;-63
2022/05/21 14:36:04;;;;;;;;;;;;;;;;;;6152997;23;19983;-64
2022/05/21 14:38:30;;;;;;;;;;;;;;;;;;6151767;23;19904;-63
2022/05/21 14:40:56;;;;;;;;;;;;;;;;;;6151923;23;19912;-63
2022/05/21 14:43:22;;;;;;;;;;;;;;;;;;6152754;23;19900;-64
2022/05/21 14:45:48;;;;;;;;;;;;;;;;;;6153087;23;20024;-63
2022/05/21 14:48:14;;;;;;;;;;;;;;;;;;6151357;23;20238;-63
2022/05/21 14:53:24;;;;;;;;;;;;;;;;;;6151997;23;19911;-63
2022/05/21 14:55:50;;;;;;;;;;;;;;;;;;6165272;23;19916;-64
2022/05/21 14:58:16;;;;;;;;;;;;;;;;;;6181022;23;19900;-63
2022/05/21 15:00:42;;;;;;;;;;;;;;;;;;6182301;23;19904;-63
2022/05/21 15:03:08;;;;;;;;;;;;;;;;;;6182027;23;20273;-64
2022/05/21 15:05:34;;;;;;;;;;;;;;;;;;6180740;23;19900;-64
2022/05/21 15:08:00;;;;;;;;;;;;;;;;;;6180914;23;19940;-64
2022/05/21 15:10:26;;;;;;;;;;;;;;;;;;6181599;23;19947;-63
2022/05/21 15:12:51;;;;;;;;;;;;;;;;;;6181512;23;19900;-63
2022/05/21 15:15:17;;;;;;;;;;;;;;;;;;6182602;23;19900;-63
2022/05/21 15:17:43;;;;;;;;;;;;;;;;;;6182090;23;19911;-63
2022/05/21 15:20:10;;;;;;;;;;;;;;;;;;6181633;23;19900;-63
2022/05/21 15:22:36;;;;;;;;;;;;;;;;;;6181015;23;19950;-63
2022/05/21 15:25:04;;;;;;;;;;;;;;;;;;6155352;23;19900;-64
2022/05/21 15:27:30;;;;;;;;;;;;;;;;;;6182127;23;19900;-63
2022/05/21 15:29:55;;;;;;;;;;;;;;;;;;6181756;23;20322;-63
2022/05/21 15:32:21;;;;;;;;;;;;;;;;;;6181990;23;19908;-63
2022/05/21 15:34:47;;;;;;;;;;;;;;;;;;6181511;23;19900;-63
2022/05/21 15:37:13;;;;;;;;;;;;;;;;;;6183131;23;19911;-63
2022/05/21 15:39:39;;;;;;;;;;;;;;;;;;6180528;23;19900;-63
2022/05/21 15:42:05;;;;;;;;;;;;;;;;;;6182545;23;19936;-63
2022/05/21 15:44:31;;;;;;;;;;;;;;;;;;6182293;23;19904;-63
2022/05/21 15:46:58;;;;;;;;;;;;;;;;;;6182312;23;19900;-63
2022/05/21 15:49:23;;;;;;;;;;;;;;;;;;6181219;23;19900;-64
2022/05/21 15:51:49;;;;;;;;;;;;;;;;;;6181570;23;19919;-63
2022/05/21 15:54:15;;;;;;;;;;;;;;;;;;6181830;23;19900;-64
2022/05/21 15:56:41;;;;;;;;;;;;;;;;;;6179443;23;20268;-63
2022/05/21 15:59:07;;;;;;;;;;;;;;;;;;6181026;23;19907;-63
2022/05/21 16:01:33;;;;;;;;;;;;;;;;;;6181119;23;19904;-63
2022/05/21 16:03:59;;;;;;;;;;;;;;;;;;6181145;23;20274;-63
2022/05/21 16:06:25;;;;;;;;;;;;;;;;;;6181018;23;19931;-63
2022/05/21 16:08:51;;;;;;;;;;;;;;;;;;6181061;23;19904;-63
2022/05/21 16:11:17;;;;;;;;;;;;;;;;;;6180636;23;20003;-63
2022/05/21 16:13:43;;;;;;;;;;;;;;;;;;6181617;23;19908;-63
2022/05/21 16:16:09;;;;;;;;;;;;;;;;;;6180895;23;19900;-64
2022/05/21 16:18:35;;;;;;;;;;;;;;;;;;6180649;23;20311;-63
2022/05/21 16:21:00;;;;;;;;;;;;;;;;;;6181505;23;19935;-63
2022/05/21 16:23:26;;;;;;;;;;;;;;;;;;6181799;23;19907;-63
2022/05/21 16:25:52;;;;;;;;;;;;;;;;;;6182730;23;19908;-63
2022/05/21 16:28:18;;;;;;;;;;;;;;;;;;6182362;23;19904;-63
2022/05/21 16:30:45;;;;;;;;;;;;;;;;;;6183188;23;20393;-63
2022/05/21 16:33:14;;;;;;;;;;;;;;;;;;6182777;23;19904;-63
2022/05/21 16:35:40;;;;;;;;;;;;;;;;;;6183495;23;19939;-63
2022/05/21 16:38:08;;;;;;;;;;;;;;;;;;6183205;23;19947;-63
2022/05/21 16:40:34;;;;;;;;;;;;;;;;;;6182939;23;20306;-63
2022/05/21 16:43:00;;;;;;;;;;;;;;;;;;6183794;23;19955;-62
2022/05/21 16:45:25;;;;;;;;;;;;;;;;;;6183398;23;19908;-64
2022/05/21 16:47:52;;;;;;;;;;;;;;;;;;6182281;23;19907;-63
2022/05/21 16:50:18;;;;;;;;;;;;;;;;;;6183091;23;19951;-63
2022/05/21 16:52:44;;;;;;;;;;;;;;;;;;6182495;23;20377;-63
2022/05/21 16:55:10;;;;;;;;;;;;;;;;;;6182919;23;19940;-64
2022/05/21 16:57:36;;;;;;;;;;;;;;;;;;6183028;23;19900;-63
2022/05/21 17:00:02;;;;;;;;;;;;;;;;;;6182809;23;19979;-63
2022/05/21 17:02:28;;;;;;;;;;;;;;;;;;6182430;23;19904;-63
2022/05/21 17:04:53;;;;;;;;;;;;;;;;;;6183453;23;20286;-63
2022/05/21 17:07:19;;;;;;;;;;;;;;;;;;6183504;23;19907;-63
2022/05/21 17:09:45;;;;;;;;;;;;;;;;;;6182697;23;19927;-63
2022/05/21 17:12:12;;;;;;;;;;;;;;;;;;6182276;23;19940;-65
2022/05/21 17:14:38;;;;;;;;;;;;;;;;;;6183151;23;20278;-63
2022/05/21 17:17:04;;;;;;;;;;;;;;;;;;6182570;23;20315;-63
2022/05/21 17:19:30;;;;;;;;;;;;;;;;;;6181939;23;19907;-63
2022/05/21 17:21:56;;;;;;;;;;;;;;;;;;6182954;23;19900;-63
2022/05/21 17:24:22;;;;;;;;;;;;;;;;;;6183730;23;20103;-63
2022/05/21 17:26:48;;;;;;;;;;;;;;;;;;6181894;23;19900;-63
2022/05/21 17:31:58;;;;;;;;;;;;;;;;;;6182058;23;19931;-63
2022/05/21 17:34:24;;;;;;;;;;;;;;;;;;6183370;23;20302;-63
2022/05/21 17:36:50;;;;;;;;;;;;;;;;;;6181702;23;19955;-63
2022/05/21 17:39:16;;;;;;;;;;;;;;;;;;6182584;23;19900;-63
2022/05/21 17:41:42;;;;;;;;;;;;;;;;;;6182214;23;19900;-63
2022/05/21 17:44:08;;;;;;;;;;;;;;;;;;6182182;23;20254;-63
2022/05/21 17:46:34;;;;;;;;;;;;;;;;;;6183318;23;20326;-63
2022/05/21 17:49:00;;;;;;;;;;;;;;;;;;6181967;23;19924;-63
2022/05/21 17:51:27;;;;;;;;;;;;;;;;;;6182897;23;19908;-63
2022/05/21 17:53:53;;;;;;;;;;;;;;;;;;6182486;23;20315;-64
2022/05/21 17:56:19;;;;;;;;;;;;;;;;;;6180302;23;19912;-63
2022/05/21 17:58:45;;;;;;;;;;;;;;;;;;6182220;23;19979;-62
2022/05/21 18:01:11;;;;;;;;;;;;;;;;;;6182253;23;19931;-63